sensor_id;sensor_type;location;lat;lon;timestamp;P1;durP1;ratioP1;P2;durP2;ratioP2
80270;SDS011;69573;45.560;10.200;2023-04-25T00:00:36;1.60;;;0.90;;
80270;SDS011;69573;45.560;10.200;2023-04-25T00:03:03;1.30;;;1.20;;
80270;SDS011;69573;45.560;10.200;2023-04-25T00:05:30;1.00;;;1.00;;
80270;SDS011;69573;45.560;10.200;2023-04-25T00:07:56;0.93;;;0.90;;
80270;SDS011;69573;45.560;10.200;2023-04-25T00:10:23;2.53;;;0.90;;
80270;SDS011;69573;45.560;10.200;2023-04-25T00:12:49;1.00;;;1.00;;
80270;SDS011;69573;45.560;10.200;2023-04-25T00:15:15;3.22;;;1.13;;
80270;SDS011;69573;45.560;10.200;2023-04-25T00:17:41;0.95;;;0.95;;
80270;SDS011;69573;45.560;10.200;2023-04-25T00:20:08;1.10;;;1.00;;
80270;SDS011;69573;45.560;10.200;2023-04-25T00:22:34;1.33;;;1.00;;
80270;SDS011;69573;45.560;10.200;2023-04-25T00:25:06;1.00;;;0.90;;
80270;SDS011;69573;45.560;10.200;2023-04-25T00:27:32;1.20;;;1.20;;
80270;SDS011;69573;45.560;10.200;2023-04-25T00:29:59;1.00;;;1.00;;
80270;SDS011;69573;45.560;10.200;2023-04-25T00:32:25;1.80;;;1.13;;
80270;SDS011;69573;45.560;10.200;2023-04-25T00:34:51;1.67;;;1.10;;
80270;SDS011;69573;45.560;10.200;2023-04-25T00:37:18;1.63;;;1.00;;
80270;SDS011;69573;45.560;10.200;2023-04-25T00:39:44;1.45;;;1.20;;
80270;SDS011;69573;45.560;10.200;2023-04-25T00:42:11;1.67;;;1.58;;
80270;SDS011;69573;45.560;10.200;2023-04-25T00:44:37;2.70;;;1.70;;
80270;SDS011;69573;45.560;10.200;2023-04-25T00:47:04;1.60;;;1.50;;
80270;SDS011;69573;45.560;10.200;2023-04-25T00:49:31;2.15;;;1.55;;
80270;SDS011;69573;45.560;10.200;2023-04-25T00:51:57;1.70;;;1.60;;
80270;SDS011;69573;45.560;10.200;2023-04-25T00:54:23;1.63;;;1.52;;
80270;SDS011;69573;45.560;10.200;2023-04-25T00:56:50;1.65;;;1.55;;
80270;SDS011;69573;45.560;10.200;2023-04-25T00:59:16;1.70;;;1.50;;
80270;SDS011;69573;45.560;10.200;2023-04-25T01:01:43;2.80;;;1.38;;
80270;SDS011;69573;45.560;10.200;2023-04-25T01:04:09;1.35;;;1.25;;
80270;SDS011;69573;45.560;10.200;2023-04-25T01:06:36;2.13;;;1.67;;
80270;SDS011;69573;45.560;10.200;2023-04-25T01:09:02;1.08;;;1.08;;
80270;SDS011;69573;45.560;10.200;2023-04-25T01:11:30;1.45;;;1.35;;
80270;SDS011;69573;45.560;10.200;2023-04-25T01:13:56;2.42;;;1.17;;
80270;SDS011;69573;45.560;10.200;2023-04-25T01:16:23;2.85;;;1.30;;
80270;SDS011;69573;45.560;10.200;2023-04-25T01:18:49;2.63;;;1.30;;
80270;SDS011;69573;45.560;10.200;2023-04-25T01:21:16;2.75;;;1.30;;
80270;SDS011;69573;45.560;10.200;2023-04-25T01:23:43;1.52;;;1.40;;
80270;SDS011;69573;45.560;10.200;2023-04-25T01:26:09;1.45;;;1.38;;
80270;SDS011;69573;45.560;10.200;2023-04-25T01:28:36;1.77;;;1.27;;
80270;SDS011;69573;45.560;10.200;2023-04-25T01:31:03;1.70;;;1.60;;
80270;SDS011;69573;45.560;10.200;2023-04-25T01:33:29;1.67;;;1.58;;
80270;SDS011;69573;45.560;10.200;2023-04-25T01:35:55;1.50;;;1.40;;
80270;SDS011;69573;45.560;10.200;2023-04-25T01:38:21;1.67;;;1.45;;
80270;SDS011;69573;45.560;10.200;2023-04-25T01:40:48;1.50;;;1.40;;
80270;SDS011;69573;45.560;10.200;2023-04-25T01:43:14;1.40;;;1.30;;
80270;SDS011;69573;45.560;10.200;2023-04-25T01:45:41;1.90;;;1.70;;
80270;SDS011;69573;45.560;10.200;2023-04-25T01:48:08;2.65;;;2.45;;
80270;SDS011;69573;45.560;10.200;2023-04-25T01:50:34;2.88;;;2.67;;
80270;SDS011;69573;45.560;10.200;2023-04-25T01:53:00;2.80;;;2.60;;
80270;SDS011;69573;45.560;10.200;2023-04-25T01:55:27;4.05;;;2.90;;
80270;SDS011;69573;45.560;10.200;2023-04-25T01:57:53;2.58;;;2.38;;
80270;SDS011;69573;45.560;10.200;2023-04-25T02:00:20;3.35;;;2.45;;
80270;SDS011;69573;45.560;10.200;2023-04-25T02:02:46;2.47;;;2.13;;
80270;SDS011;69573;45.560;10.200;2023-04-25T02:05:13;2.30;;;2.10;;
80270;SDS011;69573;45.560;10.200;2023-04-25T02:07:39;4.32;;;2.28;;
80270;SDS011;69573;45.560;10.200;2023-04-25T02:10:06;2.20;;;2.10;;
80270;SDS011;69573;45.560;10.200;2023-04-25T02:12:32;2.22;;;2.13;;
80270;SDS011;69573;45.560;10.200;2023-04-25T02:14:58;2.45;;;2.25;;
80270;SDS011;69573;45.560;10.200;2023-04-25T02:17:25;2.80;;;2.08;;
80270;SDS011;69573;45.560;10.200;2023-04-25T02:19:51;4.45;;;2.10;;
80270;SDS011;69573;45.560;10.200;2023-04-25T02:22:17;1.90;;;1.80;;
80270;SDS011;69573;45.560;10.200;2023-04-25T02:24:45;1.90;;;1.80;;
80270;SDS011;69573;45.560;10.200;2023-04-25T02:27:12;2.25;;;1.90;;
80270;SDS011;69573;45.560;10.200;2023-04-25T02:29:38;2.08;;;1.60;;
80270;SDS011;69573;45.560;10.200;2023-04-25T02:32:05;2.10;;;1.90;;
80270;SDS011;69573;45.560;10.200;2023-04-25T02:34:31;1.92;;;1.75;;
80270;SDS011;69573;45.560;10.200;2023-04-25T02:36:57;2.42;;;1.73;;
80270;SDS011;69573;45.560;10.200;2023-04-25T02:39:23;1.75;;;1.65;;
80270;SDS011;69573;45.560;10.200;2023-04-25T02:41:52;1.60;;;1.50;;
80270;SDS011;69573;45.560;10.200;2023-04-25T02:44:18;1.50;;;1.40;;
80270;SDS011;69573;45.560;10.200;2023-04-25T02:46:45;1.40;;;1.25;;
80270;SDS011;69573;45.560;10.200;2023-04-25T02:49:11;1.65;;;1.55;;
80270;SDS011;69573;45.560;10.200;2023-04-25T02:51:37;1.65;;;1.55;;
80270;SDS011;69573;45.560;10.200;2023-04-25T02:54:04;1.73;;;1.38;;
80270;SDS011;69573;45.560;10.200;2023-04-25T02:56:31;1.95;;;1.48;;
80270;SDS011;69573;45.560;10.200;2023-04-25T02:58:57;1.70;;;1.60;;
80270;SDS011;69573;45.560;10.200;2023-04-25T03:01:24;1.70;;;1.60;;
80270;SDS011;69573;45.560;10.200;2023-04-25T03:03:50;2.03;;;1.88;;
80270;SDS011;69573;45.560;10.200;2023-04-25T03:06:16;3.28;;;1.67;;
80270;SDS011;69573;45.560;10.200;2023-04-25T03:08:42;3.08;;;1.98;;
80270;SDS011;69573;45.560;10.200;2023-04-25T03:11:09;2.33;;;2.20;;
80270;SDS011;69573;45.560;10.200;2023-04-25T03:13:36;2.80;;;2.60;;
80270;SDS011;69573;45.560;10.200;2023-04-25T03:16:02;3.00;;;2.80;;
80270;SDS011;69573;45.560;10.200;2023-04-25T03:18:28;2.95;;;2.50;;
80270;SDS011;69573;45.560;10.200;2023-04-25T03:20:54;2.40;;;2.25;;
80270;SDS011;69573;45.560;10.200;2023-04-25T03:23:20;2.88;;;2.58;;
80270;SDS011;69573;45.560;10.200;2023-04-25T03:25:47;3.22;;;2.70;;
80270;SDS011;69573;45.560;10.200;2023-04-25T03:28:14;4.15;;;2.67;;
80270;SDS011;69573;45.560;10.200;2023-04-25T03:30:40;3.40;;;3.05;;
80270;SDS011;69573;45.560;10.200;2023-04-25T03:33:06;3.55;;;2.60;;
80270;SDS011;69573;45.560;10.200;2023-04-25T03:35:33;4.45;;;2.70;;
80270;SDS011;69573;45.560;10.200;2023-04-25T03:37:59;4.60;;;3.00;;
80270;SDS011;69573;45.560;10.200;2023-04-25T03:40:25;3.17;;;2.88;;
80270;SDS011;69573;45.560;10.200;2023-04-25T03:42:51;3.28;;;2.97;;
80270;SDS011;69573;45.560;10.200;2023-04-25T03:45:18;4.90;;;3.20;;
80270;SDS011;69573;45.560;10.200;2023-04-25T03:47:44;4.72;;;3.17;;
80270;SDS011;69573;45.560;10.200;2023-04-25T03:50:11;3.30;;;3.10;;
80270;SDS011;69573;45.560;10.200;2023-04-25T03:52:37;3.33;;;3.03;;
80270;SDS011;69573;45.560;10.200;2023-04-25T03:55:03;3.50;;;3.20;;
80270;SDS011;69573;45.560;10.200;2023-04-25T03:57:29;4.95;;;4.43;;
80270;SDS011;69573;45.560;10.200;2023-04-25T03:59:56;5.68;;;4.38;;
80270;SDS011;69573;45.560;10.200;2023-04-25T04:02:22;4.75;;;4.28;;
80270;SDS011;69573;45.560;10.200;2023-04-25T04:04:48;5.50;;;4.25;;
80270;SDS011;69573;45.560;10.200;2023-04-25T04:07:15;3.88;;;3.35;;
80270;SDS011;69573;45.560;10.200;2023-04-25T04:09:41;4.47;;;4.07;;
80270;SDS011;69573;45.560;10.200;2023-04-25T04:12:07;3.92;;;3.45;;
80270;SDS011;69573;45.560;10.200;2023-04-25T04:14:33;7.18;;;4.32;;
80270;SDS011;69573;45.560;10.200;2023-04-25T04:17:00;6.22;;;4.95;;
80270;SDS011;69573;45.560;10.200;2023-04-25T04:19:26;5.15;;;4.60;;
80270;SDS011;69573;45.560;10.200;2023-04-25T04:21:53;6.10;;;4.78;;
80270;SDS011;69573;45.560;10.200;2023-04-25T04:24:19;5.53;;;4.32;;
80270;SDS011;69573;45.560;10.200;2023-04-25T04:26:46;6.45;;;5.18;;
80270;SDS011;69573;45.560;10.200;2023-04-25T04:29:12;5.40;;;4.93;;
80270;SDS011;69573;45.560;10.200;2023-04-25T04:31:45;5.18;;;4.38;;
80270;SDS011;69573;45.560;10.200;2023-04-25T04:34:12;6.72;;;4.65;;
80270;SDS011;69573;45.560;10.200;2023-04-25T04:36:41;6.18;;;4.38;;
80270;SDS011;69573;45.560;10.200;2023-04-25T04:39:07;4.85;;;4.38;;
80270;SDS011;69573;45.560;10.200;2023-04-25T04:41:34;4.72;;;4.32;;
80270;SDS011;69573;45.560;10.200;2023-04-25T04:44:01;5.15;;;4.20;;
80270;SDS011;69573;45.560;10.200;2023-04-25T04:46:27;5.45;;;4.10;;
80270;SDS011;69573;45.560;10.200;2023-04-25T04:48:57;4.97;;;3.78;;
80270;SDS011;69573;45.560;10.200;2023-04-25T04:51:23;2.92;;;2.72;;
80270;SDS011;69573;45.560;10.200;2023-04-25T04:53:50;2.38;;;2.25;;
80270;SDS011;69573;45.560;10.200;2023-04-25T04:56:16;2.53;;;1.80;;
80270;SDS011;69573;45.560;10.200;2023-04-25T04:58:43;2.35;;;1.60;;
80270;SDS011;69573;45.560;10.200;2023-04-25T05:01:10;2.58;;;1.38;;
80270;SDS011;69573;45.560;10.200;2023-04-25T05:03:36;2.90;;;1.60;;
80270;SDS011;69573;45.560;10.200;2023-04-25T05:06:03;3.53;;;2.10;;
80270;SDS011;69573;45.560;10.200;2023-04-25T05:08:30;2.10;;;2.00;;
80270;SDS011;69573;45.560;10.200;2023-04-25T05:10:57;2.20;;;1.88;;
80270;SDS011;69573;45.560;10.200;2023-04-25T05:13:23;1.90;;;1.65;;
80270;SDS011;69573;45.560;10.200;2023-04-25T05:15:49;2.40;;;2.20;;
80270;SDS011;69573;45.560;10.200;2023-04-25T05:18:19;1.92;;;1.83;;
80270;SDS011;69573;45.560;10.200;2023-04-25T05:20:45;2.20;;;2.10;;
80270;SDS011;69573;45.560;10.200;2023-04-25T05:23:11;1.70;;;1.60;;
80270;SDS011;69573;45.560;10.200;2023-04-25T05:25:38;4.60;;;1.90;;
80270;SDS011;69573;45.560;10.200;2023-04-25T05:28:04;2.67;;;1.95;;
80270;SDS011;69573;45.560;10.200;2023-04-25T05:30:30;1.30;;;1.20;;
80270;SDS011;69573;45.560;10.200;2023-04-25T05:32:57;2.22;;;1.98;;
80270;SDS011;69573;45.560;10.200;2023-04-25T05:35:23;2.60;;;1.60;;
80270;SDS011;69573;45.560;10.200;2023-04-25T05:37:50;1.80;;;1.70;;
80270;SDS011;69573;45.560;10.200;2023-04-25T05:40:16;1.63;;;1.50;;
80270;SDS011;69573;45.560;10.200;2023-04-25T05:42:42;1.88;;;1.70;;
80270;SDS011;69573;45.560;10.200;2023-04-25T05:45:09;1.38;;;1.27;;
80270;SDS011;69573;45.560;10.200;2023-04-25T05:47:35;1.52;;;1.40;;
80270;SDS011;69573;45.560;10.200;2023-04-25T05:50:01;1.30;;;1.20;;
80270;SDS011;69573;45.560;10.200;2023-04-25T05:52:28;1.15;;;1.15;;
80270;SDS011;69573;45.560;10.200;2023-04-25T05:54:54;1.75;;;1.42;;
80270;SDS011;69573;45.560;10.200;2023-04-25T05:57:23;1.30;;;1.20;;
80270;SDS011;69573;45.560;10.200;2023-04-25T05:59:49;1.35;;;1.30;;
80270;SDS011;69573;45.560;10.200;2023-04-25T06:02:15;1.63;;;1.52;;
80270;SDS011;69573;45.560;10.200;2023-04-25T06:04:42;1.67;;;1.50;;
80270;SDS011;69573;45.560;10.200;2023-04-25T06:07:08;1.80;;;1.70;;
80270;SDS011;69573;45.560;10.200;2023-04-25T06:09:34;1.65;;;1.55;;
80270;SDS011;69573;45.560;10.200;2023-04-25T06:12:00;2.40;;;2.20;;
80270;SDS011;69573;45.560;10.200;2023-04-25T06:14:27;1.90;;;1.80;;
80270;SDS011;69573;45.560;10.200;2023-04-25T06:16:53;1.80;;;1.70;;
80270;SDS011;69573;45.560;10.200;2023-04-25T06:19:19;2.13;;;1.67;;
80270;SDS011;69573;45.560;10.200;2023-04-25T06:21:45;2.55;;;1.90;;
80270;SDS011;69573;45.560;10.200;2023-04-25T06:24:12;2.08;;;1.88;;
80270;SDS011;69573;45.560;10.200;2023-04-25T06:26:38;2.17;;;2.00;;
80270;SDS011;69573;45.560;10.200;2023-04-25T06:29:04;1.88;;;1.77;;
80270;SDS011;69573;45.560;10.200;2023-04-25T06:31:31;2.28;;;1.90;;
80270;SDS011;69573;45.560;10.200;2023-04-25T06:36:36;1.70;;;1.60;;
80270;SDS011;69573;45.560;10.200;2023-04-25T06:39:02;1.90;;;1.80;;
80270;SDS011;69573;45.560;10.200;2023-04-25T06:41:29;2.00;;;1.90;;
80270;SDS011;69573;45.560;10.200;2023-04-25T06:43:55;1.90;;;1.80;;
80270;SDS011;69573;45.560;10.200;2023-04-25T06:46:22;2.60;;;1.75;;
80270;SDS011;69573;45.560;10.200;2023-04-25T06:48:48;1.98;;;1.70;;
80270;SDS011;69573;45.560;10.200;2023-04-25T06:51:15;2.00;;;1.90;;
80270;SDS011;69573;45.560;10.200;2023-04-25T06:53:42;1.75;;;1.65;;
80270;SDS011;69573;45.560;10.200;2023-04-25T06:56:08;1.90;;;1.80;;
80270;SDS011;69573;45.560;10.200;2023-04-25T06:58:35;2.03;;;1.73;;
80270;SDS011;69573;45.560;10.200;2023-04-25T07:01:01;1.80;;;1.70;;
80270;SDS011;69573;45.560;10.200;2023-04-25T07:03:27;2.38;;;1.63;;
80270;SDS011;69573;45.560;10.200;2023-04-25T07:05:54;1.73;;;1.63;;
80270;SDS011;69573;45.560;10.200;2023-04-25T07:08:20;1.70;;;1.60;;
80270;SDS011;69573;45.560;10.200;2023-04-25T07:10:47;2.03;;;1.65;;
80270;SDS011;69573;45.560;10.200;2023-04-25T07:13:13;1.77;;;1.60;;
80270;SDS011;69573;45.560;10.200;2023-04-25T07:15:39;2.47;;;1.55;;
80270;SDS011;69573;45.560;10.200;2023-04-25T07:18:06;2.55;;;1.30;;
80270;SDS011;69573;45.560;10.200;2023-04-25T07:20:33;1.60;;;1.50;;
80270;SDS011;69573;45.560;10.200;2023-04-25T07:23:02;1.77;;;1.42;;
80270;SDS011;69573;45.560;10.200;2023-04-25T07:25:28;1.63;;;1.52;;
80270;SDS011;69573;45.560;10.200;2023-04-25T07:27:56;2.08;;;1.70;;
80270;SDS011;69573;45.560;10.200;2023-04-25T07:30:22;1.63;;;1.52;;
80270;SDS011;69573;45.560;10.200;2023-04-25T07:32:52;2.05;;;1.77;;
80270;SDS011;69573;45.560;10.200;2023-04-25T07:35:18;1.63;;;1.52;;
80270;SDS011;69573;45.560;10.200;2023-04-25T07:37:45;1.95;;;1.70;;
80270;SDS011;69573;45.560;10.200;2023-04-25T07:40:11;4.70;;;1.85;;
80270;SDS011;69573;45.560;10.200;2023-04-25T07:42:37;1.80;;;1.70;;
80270;SDS011;69573;45.560;10.200;2023-04-25T07:45:04;3.00;;;1.70;;
80270;SDS011;69573;45.560;10.200;2023-04-25T07:47:31;1.80;;;1.70;;
80270;SDS011;69573;45.560;10.200;2023-04-25T07:49:57;1.85;;;1.75;;
80270;SDS011;69573;45.560;10.200;2023-04-25T07:52:23;1.75;;;1.65;;
80270;SDS011;69573;45.560;10.200;2023-04-25T07:54:50;2.00;;;1.90;;
80270;SDS011;69573;45.560;10.200;2023-04-25T07:57:16;2.25;;;2.05;;
80270;SDS011;69573;45.560;10.200;2023-04-25T07:59:42;2.33;;;2.00;;
80270;SDS011;69573;45.560;10.200;2023-04-25T08:02:08;2.63;;;1.77;;
80270;SDS011;69573;45.560;10.200;2023-04-25T08:04:35;3.28;;;1.95;;
80270;SDS011;69573;45.560;10.200;2023-04-25T08:07:02;1.85;;;1.75;;
80270;SDS011;69573;45.560;10.200;2023-04-25T08:09:29;2.33;;;2.13;;
80270;SDS011;69573;45.560;10.200;2023-04-25T08:11:59;2.20;;;2.10;;
80270;SDS011;69573;45.560;10.200;2023-04-25T08:14:26;1.80;;;1.70;;
80270;SDS011;69573;45.560;10.200;2023-04-25T08:16:52;2.03;;;1.85;;
80270;SDS011;69573;45.560;10.200;2023-04-25T08:19:18;2.33;;;2.08;;
80270;SDS011;69573;45.560;10.200;2023-04-25T08:21:45;2.63;;;2.30;;
80270;SDS011;69573;45.560;10.200;2023-04-25T08:24:12;2.40;;;2.20;;
80270;SDS011;69573;45.560;10.200;2023-04-25T08:26:38;2.60;;;2.35;;
80270;SDS011;69573;45.560;10.200;2023-04-25T08:29:06;3.35;;;2.67;;
80270;SDS011;69573;45.560;10.200;2023-04-25T08:31:32;2.35;;;2.20;;
80270;SDS011;69573;45.560;10.200;2023-04-25T08:33:59;4.53;;;2.30;;
80270;SDS011;69573;45.560;10.200;2023-04-25T08:36:25;2.80;;;2.60;;
80270;SDS011;69573;45.560;10.200;2023-04-25T08:38:53;2.88;;;2.67;;
80270;SDS011;69573;45.560;10.200;2023-04-25T08:41:19;3.42;;;3.17;;
80270;SDS011;69573;45.560;10.200;2023-04-25T08:43:47;3.88;;;2.90;;
80270;SDS011;69573;45.560;10.200;2023-04-25T08:46:15;2.45;;;2.30;;
80270;SDS011;69573;45.560;10.200;2023-04-25T08:48:43;2.80;;;2.60;;
80270;SDS011;69573;45.560;10.200;2023-04-25T08:51:10;2.35;;;2.20;;
80270;SDS011;69573;45.560;10.200;2023-04-25T08:53:41;3.88;;;2.67;;
80270;SDS011;69573;45.560;10.200;2023-04-25T08:56:08;2.83;;;2.60;;
80270;SDS011;69573;45.560;10.200;2023-04-25T08:58:38;3.58;;;3.10;;
80270;SDS011;69573;45.560;10.200;2023-04-25T09:01:04;2.38;;;2.28;;
80270;SDS011;69573;45.560;10.200;2023-04-25T09:03:31;3.20;;;2.15;;
80270;SDS011;69573;45.560;10.200;2023-04-25T09:05:58;1.80;;;1.70;;
80270;SDS011;69573;45.560;10.200;2023-04-25T09:08:24;2.22;;;2.13;;
80270;SDS011;69573;45.560;10.200;2023-04-25T09:10:51;2.65;;;2.17;;
80270;SDS011;69573;45.560;10.200;2023-04-25T09:13:24;2.05;;;1.95;;
80270;SDS011;69573;45.560;10.200;2023-04-25T09:15:51;2.38;;;2.20;;
80270;SDS011;69573;45.560;10.200;2023-04-25T09:18:24;2.10;;;2.00;;
80270;SDS011;69573;45.560;10.200;2023-04-25T09:20:51;2.28;;;2.10;;
80270;SDS011;69573;45.560;10.200;2023-04-25T09:23:17;2.38;;;2.17;;
80270;SDS011;69573;45.560;10.200;2023-04-25T09:25:45;1.77;;;1.63;;
80270;SDS011;69573;45.560;10.200;2023-04-25T09:28:13;2.05;;;1.92;;
80270;SDS011;69573;45.560;10.200;2023-04-25T09:30:39;3.10;;;1.70;;
80270;SDS011;69573;45.560;10.200;2023-04-25T09:33:10;1.77;;;1.65;;
80270;SDS011;69573;45.560;10.200;2023-04-25T09:38:07;1.90;;;1.80;;
80270;SDS011;69573;45.560;10.200;2023-04-25T09:40:33;4.35;;;1.58;;
80270;SDS011;69573;45.560;10.200;2023-04-25T09:43:00;3.08;;;1.90;;
80270;SDS011;69573;45.560;10.200;2023-04-25T09:45:29;2.00;;;1.80;;
80270;SDS011;69573;45.560;10.200;2023-04-25T09:47:56;2.20;;;2.00;;
80270;SDS011;69573;45.560;10.200;2023-04-25T09:50:23;2.95;;;1.80;;
80270;SDS011;69573;45.560;10.200;2023-04-25T09:53:05;1.70;;;1.55;;
80270;SDS011;69573;45.560;10.200;2023-04-25T09:55:32;2.17;;;2.08;;
80270;SDS011;69573;45.560;10.200;2023-04-25T09:58:03;3.85;;;2.08;;
80270;SDS011;69573;45.560;10.200;2023-04-25T10:00:30;1.80;;;1.70;;
80270;SDS011;69573;45.560;10.200;2023-04-25T10:03:00;1.95;;;1.80;;
80270;SDS011;69573;45.560;10.200;2023-04-25T10:05:27;1.85;;;1.75;;
80270;SDS011;69573;45.560;10.200;2023-04-25T10:07:54;2.13;;;1.95;;
80270;SDS011;69573;45.560;10.200;2023-04-25T10:10:21;1.88;;;1.77;;
80270;SDS011;69573;45.560;10.200;2023-04-25T10:12:50;1.52;;;1.42;;
80270;SDS011;69573;45.560;10.200;2023-04-25T10:15:17;2.30;;;2.10;;
80270;SDS011;69573;45.560;10.200;2023-04-25T10:17:43;1.92;;;1.83;;
80270;SDS011;69573;45.560;10.200;2023-04-25T10:20:09;3.03;;;1.92;;
80270;SDS011;69573;45.560;10.200;2023-04-25T10:22:41;2.40;;;2.20;;
80270;SDS011;69573;45.560;10.200;2023-04-25T10:25:07;2.35;;;1.95;;
80270;SDS011;69573;45.560;10.200;2023-04-25T10:27:34;2.00;;;1.90;;
80270;SDS011;69573;45.560;10.200;2023-04-25T10:30:04;1.80;;;1.70;;
80270;SDS011;69573;45.560;10.200;2023-04-25T10:32:31;1.90;;;1.80;;
80270;SDS011;69573;45.560;10.200;2023-04-25T10:35:18;1.67;;;1.58;;
80270;SDS011;69573;45.560;10.200;2023-04-25T10:40:31;2.20;;;1.73;;
80270;SDS011;69573;45.560;10.200;2023-04-25T10:45:51;1.77;;;1.67;;
80270;SDS011;69573;45.560;10.200;2023-04-25T10:48:30;3.78;;;1.50;;
80270;SDS011;69573;45.560;10.200;2023-04-25T10:51:09;1.63;;;1.52;;
80270;SDS011;69573;45.560;10.200;2023-04-25T10:53:39;1.65;;;1.55;;
80270;SDS011;69573;45.560;10.200;2023-04-25T10:56:10;1.85;;;1.75;;
80270;SDS011;69573;45.560;10.200;2023-04-25T10:58:41;1.80;;;1.70;;
80270;SDS011;69573;45.560;10.200;2023-04-25T11:01:07;1.80;;;1.70;;
80270;SDS011;69573;45.560;10.200;2023-04-25T11:03:38;1.98;;;1.83;;
80270;SDS011;69573;45.560;10.200;2023-04-25T11:06:04;1.85;;;1.75;;
80270;SDS011;69573;45.560;10.200;2023-04-25T11:08:36;1.63;;;1.52;;
80270;SDS011;69573;45.560;10.200;2023-04-25T11:11:07;1.73;;;1.50;;
80270;SDS011;69573;45.560;10.200;2023-04-25T11:13:34;2.13;;;1.75;;
80270;SDS011;69573;45.560;10.200;2023-04-25T11:16:02;1.92;;;1.83;;
80270;SDS011;69573;45.560;10.200;2023-04-25T11:18:28;2.20;;;2.00;;
80270;SDS011;69573;45.560;10.200;2023-04-25T11:20:54;1.50;;;1.40;;
80270;SDS011;69573;45.560;10.200;2023-04-25T11:23:21;2.00;;;1.80;;
80270;SDS011;69573;45.560;10.200;2023-04-25T11:25:47;1.50;;;1.40;;
80270;SDS011;69573;45.560;10.200;2023-04-25T11:28:20;3.53;;;2.90;;
80270;SDS011;69573;45.560;10.200;2023-04-25T11:30:50;1.50;;;1.40;;
80270;SDS011;69573;45.560;10.200;2023-04-25T11:33:17;1.63;;;1.52;;
80270;SDS011;69573;45.560;10.200;2023-04-25T11:35:43;3.40;;;2.05;;
80270;SDS011;69573;45.560;10.200;2023-04-25T11:38:10;1.55;;;1.45;;
80270;SDS011;69573;45.560;10.200;2023-04-25T11:40:36;1.60;;;1.50;;
80270;SDS011;69573;45.560;10.200;2023-04-25T11:43:02;1.70;;;1.60;;
80270;SDS011;69573;45.560;10.200;2023-04-25T11:45:29;1.50;;;1.40;;
80270;SDS011;69573;45.560;10.200;2023-04-25T11:47:56;2.00;;;1.85;;
80270;SDS011;69573;45.560;10.200;2023-04-25T11:50:22;1.63;;;1.52;;
80270;SDS011;69573;45.560;10.200;2023-04-25T11:52:49;1.60;;;1.50;;
80270;SDS011;69573;45.560;10.200;2023-04-25T11:55:16;1.50;;;1.40;;
80270;SDS011;69573;45.560;10.200;2023-04-25T11:57:43;1.30;;;1.20;;
80270;SDS011;69573;45.560;10.200;2023-04-25T12:00:14;1.10;;;1.10;;
80270;SDS011;69573;45.560;10.200;2023-04-25T12:02:42;1.55;;;1.45;;
80270;SDS011;69573;45.560;10.200;2023-04-25T12:05:09;1.25;;;1.25;;
80270;SDS011;69573;45.560;10.200;2023-04-25T12:07:35;2.42;;;1.65;;
80270;SDS011;69573;45.560;10.200;2023-04-25T12:10:08;1.80;;;1.70;;
80270;SDS011;69573;45.560;10.200;2023-04-25T12:12:35;1.52;;;1.27;;
80270;SDS011;69573;45.560;10.200;2023-04-25T12:15:34;1.52;;;1.42;;
80270;SDS011;69573;45.560;10.200;2023-04-25T12:17:54;1.70;;;1.60;;
80270;SDS011;69573;45.560;10.200;2023-04-25T12:20:23;1.85;;;1.08;;
80270;SDS011;69573;45.560;10.200;2023-04-25T12:22:50;1.08;;;1.00;;
80270;SDS011;69573;45.560;10.200;2023-04-25T12:31:24;2.22;;;1.30;;
80270;SDS011;69573;45.560;10.200;2023-04-25T12:33:26;2.25;;;1.40;;
80270;SDS011;69573;45.560;10.200;2023-04-25T12:35:53;1.55;;;1.40;;
80270;SDS011;69573;45.560;10.200;2023-04-25T12:40:51;1.42;;;1.33;;
80270;SDS011;69573;45.560;10.200;2023-04-25T12:43:17;2.70;;;1.50;;
80270;SDS011;69573;45.560;10.200;2023-04-25T12:45:44;1.80;;;1.70;;
80270;SDS011;69573;45.560;10.200;2023-04-25T12:48:10;1.92;;;1.83;;
80270;SDS011;69573;45.560;10.200;2023-04-25T12:50:36;3.40;;;1.73;;
80270;SDS011;69573;45.560;10.200;2023-04-25T12:53:03;2.05;;;1.80;;
80270;SDS011;69573;45.560;10.200;2023-04-25T12:55:29;1.45;;;1.35;;
80270;SDS011;69573;45.560;10.200;2023-04-25T12:57:56;1.80;;;1.70;;
80270;SDS011;69573;45.560;10.200;2023-04-25T13:00:22;1.70;;;1.60;;
80270;SDS011;69573;45.560;10.200;2023-04-25T13:02:49;2.10;;;1.90;;
80270;SDS011;69573;45.560;10.200;2023-04-25T13:05:15;2.15;;;1.60;;
80270;SDS011;69573;45.560;10.200;2023-04-25T13:07:41;2.58;;;1.92;;
80270;SDS011;69573;45.560;10.200;2023-04-25T13:10:08;1.75;;;1.65;;
80270;SDS011;69573;45.560;10.200;2023-04-25T13:12:34;3.55;;;1.90;;
80270;SDS011;69573;45.560;10.200;2023-04-25T13:15:00;2.83;;;2.22;;
80270;SDS011;69573;45.560;10.200;2023-04-25T13:17:26;1.92;;;1.73;;
80270;SDS011;69573;45.560;10.200;2023-04-25T13:19:52;2.53;;;2.22;;
80270;SDS011;69573;45.560;10.200;2023-04-25T13:22:19;2.00;;;1.80;;
80270;SDS011;69573;45.560;10.200;2023-04-25T13:24:45;2.22;;;1.77;;
80270;SDS011;69573;45.560;10.200;2023-04-25T13:27:12;2.53;;;2.10;;
80270;SDS011;69573;45.560;10.200;2023-04-25T13:29:39;3.15;;;1.90;;
80270;SDS011;69573;45.560;10.200;2023-04-25T13:32:05;2.15;;;1.95;;
80270;SDS011;69573;45.560;10.200;2023-04-25T13:34:32;2.15;;;1.95;;
80270;SDS011;69573;45.560;10.200;2023-04-25T13:36:58;3.28;;;2.30;;
80270;SDS011;69573;45.560;10.200;2023-04-25T13:39:25;2.35;;;2.20;;
80270;SDS011;69573;45.560;10.200;2023-04-25T13:41:51;2.20;;;2.00;;
80270;SDS011;69573;45.560;10.200;2023-04-25T13:44:18;3.35;;;1.92;;
80270;SDS011;69573;45.560;10.200;2023-04-25T13:46:44;2.20;;;2.00;;
80270;SDS011;69573;45.560;10.200;2023-04-25T13:49:11;1.83;;;1.67;;
80270;SDS011;69573;45.560;10.200;2023-04-25T13:51:37;1.88;;;1.77;;
80270;SDS011;69573;45.560;10.200;2023-04-25T13:54:04;1.70;;;1.60;;
80270;SDS011;69573;45.560;10.200;2023-04-25T13:56:30;1.65;;;1.55;;
80270;SDS011;69573;45.560;10.200;2023-04-25T13:58:56;1.80;;;1.70;;
80270;SDS011;69573;45.560;10.200;2023-04-25T14:01:23;2.00;;;1.80;;
80270;SDS011;69573;45.560;10.200;2023-04-25T14:03:50;1.50;;;1.40;;
80270;SDS011;69573;45.560;10.200;2023-04-25T14:06:16;1.83;;;1.27;;
80270;SDS011;69573;45.560;10.200;2023-04-25T14:08:48;1.33;;;1.20;;
80270;SDS011;69573;45.560;10.200;2023-04-25T14:11:14;1.92;;;1.42;;
80270;SDS011;69573;45.560;10.200;2023-04-25T14:13:43;1.65;;;1.52;;
80270;SDS011;69573;45.560;10.200;2023-04-25T14:16:10;1.73;;;1.38;;
80270;SDS011;69573;45.560;10.200;2023-04-25T14:18:36;1.70;;;1.60;;
80270;SDS011;69573;45.560;10.200;2023-04-25T14:21:03;1.60;;;1.50;;
80270;SDS011;69573;45.560;10.200;2023-04-25T14:23:30;2.45;;;1.40;;
80270;SDS011;69573;45.560;10.200;2023-04-25T14:25:57;1.30;;;1.20;;
80270;SDS011;69573;45.560;10.200;2023-04-25T14:28:23;1.58;;;1.35;;
80270;SDS011;69573;45.560;10.200;2023-04-25T14:30:49;1.48;;;1.38;;
80270;SDS011;69573;45.560;10.200;2023-04-25T14:33:16;1.40;;;1.30;;
80270;SDS011;69573;45.560;10.200;2023-04-25T14:35:42;1.92;;;1.40;;
80270;SDS011;69573;45.560;10.200;2023-04-25T14:38:09;2.25;;;1.20;;
80270;SDS011;69573;45.560;10.200;2023-04-25T14:40:35;1.40;;;1.30;;
80270;SDS011;69573;45.560;10.200;2023-04-25T14:43:02;1.50;;;1.40;;
80270;SDS011;69573;45.560;10.200;2023-04-25T14:45:29;2.05;;;1.35;;
80270;SDS011;69573;45.560;10.200;2023-04-25T14:47:55;1.42;;;1.05;;
80270;SDS011;69573;45.560;10.200;2023-04-25T14:50:22;1.23;;;1.13;;